LPMA/FNC METAR and TAF weather

Enter ICAO airport designator
Station Type Date Time Source
LPMA METAR 2020/03/31 10:00 UTC NOAA

LPMA 311000Z 21004KT 180V250 9999 FEW015 18/12 Q1012


Station Type Date Time Source
LPMA Decoded METAR 2020/03/31 10:00 UTC NOAA

Aeroporto Da Madeira, Portugal (LPMA) 32-41-52N 016-46-28W
Mar 31, 2020 - 06:00 AM EDT / 2020.03.31 1000 UTC
Wind: from the SSW (210 degrees) at 5 MPH (4 KT) (direction variable):0
Visibility: greater than 7 mile(s):0
Sky conditions: mostly clear
Temperature: 64 F (18 C)
Dew Point: 53 F (12 C)
Relative Humidity: 67%
Pressure (altimeter): 29.88 in. Hg (1012 hPa)
ob: LPMA 311000Z 21004KT 180V250 9999 FEW015 18/12 Q1012
cycle: 10

Station Type Date Time Source
LPMA TAF 2020/03/31 09:39 UTC NOAA

TAF
AMD TAF
AMD LPMA 310937Z 3109/0106 VRB05KT 9999 SCT015
TEMPO 3109/3116 21010KT
TEMPO 3116/0106 32010KT

Example: see airport list